sensor_id;sensor_type;location;lat;lon;timestamp;temperature;humidity
25058;DHT22;13057;50.978;11.034;2023-05-10T00:01:52;16.00;82.70
25058;DHT22;13057;50.978;11.034;2023-05-10T00:04:17;16.00;82.90
25058;DHT22;13057;50.978;11.034;2023-05-10T00:06:43;16.00;82.90
25058;DHT22;13057;50.978;11.034;2023-05-10T00:09:09;15.90;83.00
25058;DHT22;13057;50.978;11.034;2023-05-10T00:11:35;16.00;83.20
25058;DHT22;13057;50.978;11.034;2023-05-10T00:14:01;15.90;83.10
25058;DHT22;13057;50.978;11.034;2023-05-10T00:16:27;15.90;83.50
25058;DHT22;13057;50.978;11.034;2023-05-10T00:18:53;16.00;83.50
25058;DHT22;13057;50.978;11.034;2023-05-10T00:21:19;15.90;83.60
25058;DHT22;13057;50.978;11.034;2023-05-10T00:23:45;15.90;83.60
25058;DHT22;13057;50.978;11.034;2023-05-10T00:26:11;15.90;83.80
25058;DHT22;13057;50.978;11.034;2023-05-10T00:28:37;15.90;83.90
25058;DHT22;13057;50.978;11.034;2023-05-10T00:31:03;15.90;83.80
25058;DHT22;13057;50.978;11.034;2023-05-10T00:33:28;15.90;83.90
25058;DHT22;13057;50.978;11.034;2023-05-10T00:35:54;15.90;84.10
25058;DHT22;13057;50.978;11.034;2023-05-10T00:38:20;15.90;84.00
25058;DHT22;13057;50.978;11.034;2023-05-10T00:40:46;15.90;84.10
25058;DHT22;13057;50.978;11.034;2023-05-10T00:43:12;15.90;84.20
25058;DHT22;13057;50.978;11.034;2023-05-10T00:45:39;15.90;84.50
25058;DHT22;13057;50.978;11.034;2023-05-10T00:48:06;15.90;84.80
25058;DHT22;13057;50.978;11.034;2023-05-10T00:50:33;15.90;85.00
25058;DHT22;13057;50.978;11.034;2023-05-10T00:52:59;15.80;85.00
25058;DHT22;13057;50.978;11.034;2023-05-10T00:55:26;15.70;85.60
25058;DHT22;13057;50.978;11.034;2023-05-10T00:57:53;15.70;85.70
25058;DHT22;13057;50.978;11.034;2023-05-10T01:00:19;15.70;85.90
25058;DHT22;13057;50.978;11.034;2023-05-10T01:02:46;15.70;86.00
25058;DHT22;13057;50.978;11.034;2023-05-10T01:05:12;15.70;86.10
25058;DHT22;13057;50.978;11.034;2023-05-10T01:07:39;15.60;86.20
25058;DHT22;13057;50.978;11.034;2023-05-10T01:10:06;15.60;86.60
25058;DHT22;13057;50.978;11.034;2023-05-10T01:12:35;15.60;86.80
25058;DHT22;13057;50.978;11.034;2023-05-10T01:15:02;15.60;87.00
25058;DHT22;13057;50.978;11.034;2023-05-10T01:17:29;15.60;86.90
25058;DHT22;13057;50.978;11.034;2023-05-10T01:19:55;15.60;88.00
25058;DHT22;13057;50.978;11.034;2023-05-10T01:22:42;15.60;87.30
25058;DHT22;13057;50.978;11.034;2023-05-10T01:25:31;15.60;87.50
25058;DHT22;13057;50.978;11.034;2023-05-10T01:31:09;15.50;87.70
25058;DHT22;13057;50.978;11.034;2023-05-10T01:33:51;15.50;87.70
25058;DHT22;13057;50.978;11.034;2023-05-10T01:36:32;15.50;87.80
25058;DHT22;13057;50.978;11.034;2023-05-10T01:39:09;15.50;88.20
25058;DHT22;13057;50.978;11.034;2023-05-10T01:42:00;15.50;88.40
25058;DHT22;13057;50.978;11.034;2023-05-10T01:44:35;15.50;88.20
25058;DHT22;13057;50.978;11.034;2023-05-10T01:47:10;15.50;88.30
25058;DHT22;13057;50.978;11.034;2023-05-10T01:49:41;15.40;88.40
25058;DHT22;13057;50.978;11.034;2023-05-10T01:52:11;15.40;89.10
25058;DHT22;13057;50.978;11.034;2023-05-10T01:54:42;15.40;88.80
25058;DHT22;13057;50.978;11.034;2023-05-10T01:57:11;15.40;88.90
25058;DHT22;13057;50.978;11.034;2023-05-10T01:59:40;15.40;89.00
25058;DHT22;13057;50.978;11.034;2023-05-10T02:02:09;15.40;89.00
25058;DHT22;13057;50.978;11.034;2023-05-10T02:04:39;15.40;89.30
25058;DHT22;13057;50.978;11.034;2023-05-10T02:07:06;15.40;89.20
25058;DHT22;13057;50.978;11.034;2023-05-10T02:09:33;15.40;89.40
25058;DHT22;13057;50.978;11.034;2023-05-10T02:12:02;15.40;89.40
25058;DHT22;13057;50.978;11.034;2023-05-10T02:14:32;15.40;89.60
25058;DHT22;13057;50.978;11.034;2023-05-10T02:17:00;15.30;89.90
25058;DHT22;13057;50.978;11.034;2023-05-10T02:19:28;15.30;90.30
25058;DHT22;13057;50.978;11.034;2023-05-10T02:21:55;15.30;90.30
25058;DHT22;13057;50.978;11.034;2023-05-10T02:24:22;15.30;90.30
25058;DHT22;13057;50.978;11.034;2023-05-10T02:26:51;15.30;90.20
25058;DHT22;13057;50.978;11.034;2023-05-10T02:29:19;15.30;90.30
25058;DHT22;13057;50.978;11.034;2023-05-10T02:31:46;15.20;90.40
25058;DHT22;13057;50.978;11.034;2023-05-10T02:34:12;15.20;90.30
25058;DHT22;13057;50.978;11.034;2023-05-10T02:36:39;15.20;90.50
25058;DHT22;13057;50.978;11.034;2023-05-10T02:39:07;15.20;90.50
25058;DHT22;13057;50.978;11.034;2023-05-10T02:41:37;15.20;90.50
25058;DHT22;13057;50.978;11.034;2023-05-10T02:44:05;15.20;90.60
25058;DHT22;13057;50.978;11.034;2023-05-10T02:46:32;15.20;90.60
25058;DHT22;13057;50.978;11.034;2023-05-10T02:48:58;15.20;90.70
25058;DHT22;13057;50.978;11.034;2023-05-10T02:51:25;15.20;90.70
25058;DHT22;13057;50.978;11.034;2023-05-10T02:53:54;15.20;90.80
25058;DHT22;13057;50.978;11.034;2023-05-10T02:56:28;15.20;90.90
25058;DHT22;13057;50.978;11.034;2023-05-10T02:58:56;15.20;91.00
25058;DHT22;13057;50.978;11.034;2023-05-10T03:01:23;15.10;91.30
25058;DHT22;13057;50.978;11.034;2023-05-10T03:03:49;15.10;91.30
25058;DHT22;13057;50.978;11.034;2023-05-10T03:06:14;15.10;91.30
25058;DHT22;13057;50.978;11.034;2023-05-10T03:08:42;15.10;91.50
25058;DHT22;13057;50.978;11.034;2023-05-10T03:11:39;15.10;91.70
25058;DHT22;13057;50.978;11.034;2023-05-10T03:17:06;15.10;92.10
25058;DHT22;13057;50.978;11.034;2023-05-10T03:19:45;15.10;92.00
25058;DHT22;13057;50.978;11.034;2023-05-10T03:22:20;15.10;92.10
25058;DHT22;13057;50.978;11.034;2023-05-10T03:24:49;15.10;92.30
25058;DHT22;13057;50.978;11.034;2023-05-10T03:27:15;15.10;92.40
25058;DHT22;13057;50.978;11.034;2023-05-10T03:29:42;15.10;93.60
25058;DHT22;13057;50.978;11.034;2023-05-10T03:32:09;15.10;92.90
25058;DHT22;13057;50.978;11.034;2023-05-10T03:34:41;15.00;92.90
25058;DHT22;13057;50.978;11.034;2023-05-10T03:37:07;15.10;92.90
25058;DHT22;13057;50.978;11.034;2023-05-10T03:39:33;15.10;93.30
25058;DHT22;13057;50.978;11.034;2023-05-10T03:41:59;15.10;94.20
25058;DHT22;13057;50.978;11.034;2023-05-10T03:44:25;15.00;94.60
25058;DHT22;13057;50.978;11.034;2023-05-10T03:46:51;15.00;94.70
25058;DHT22;13057;50.978;11.034;2023-05-10T03:49:17;15.00;95.40
25058;DHT22;13057;50.978;11.034;2023-05-10T03:51:43;15.00;96.10
25058;DHT22;13057;50.978;11.034;2023-05-10T03:54:08;15.00;97.40
25058;DHT22;13057;50.978;11.034;2023-05-10T03:56:34;15.00;97.70
25058;DHT22;13057;50.978;11.034;2023-05-10T03:59:00;14.90;97.40
25058;DHT22;13057;50.978;11.034;2023-05-10T04:01:26;14.90;98.30
25058;DHT22;13057;50.978;11.034;2023-05-10T04:03:52;14.80;98.30
25058;DHT22;13057;50.978;11.034;2023-05-10T04:06:18;14.90;99.50
25058;DHT22;13057;50.978;11.034;2023-05-10T04:08:44;14.80;99.90
25058;DHT22;13057;50.978;11.034;2023-05-10T04:11:11;14.80;99.90
25058;DHT22;13057;50.978;11.034;2023-05-10T04:13:38;14.80;99.90
25058;DHT22;13057;50.978;11.034;2023-05-10T04:16:04;14.80;99.90
25058;DHT22;13057;50.978;11.034;2023-05-10T04:18:30;14.80;99.90
25058;DHT22;13057;50.978;11.034;2023-05-10T04:20:57;14.70;99.90
25058;DHT22;13057;50.978;11.034;2023-05-10T04:23:23;14.70;99.90
25058;DHT22;13057;50.978;11.034;2023-05-10T04:25:49;14.60;99.90
25058;DHT22;13057;50.978;11.034;2023-05-10T04:28:15;14.60;99.90
25058;DHT22;13057;50.978;11.034;2023-05-10T04:30:41;14.60;99.90
25058;DHT22;13057;50.978;11.034;2023-05-10T04:33:06;14.60;99.90
25058;DHT22;13057;50.978;11.034;2023-05-10T04:35:32;14.60;99.90
25058;DHT22;13057;50.978;11.034;2023-05-10T04:37:59;14.50;99.90
25058;DHT22;13057;50.978;11.034;2023-05-10T04:40:25;14.50;99.90
25058;DHT22;13057;50.978;11.034;2023-05-10T04:42:51;14.50;99.90
25058;DHT22;13057;50.978;11.034;2023-05-10T04:45:17;14.50;99.90
25058;DHT22;13057;50.978;11.034;2023-05-10T04:47:43;14.40;99.90
25058;DHT22;13057;50.978;11.034;2023-05-10T04:50:09;14.40;99.90
25058;DHT22;13057;50.978;11.034;2023-05-10T04:52:35;14.40;99.90
25058;DHT22;13057;50.978;11.034;2023-05-10T04:55:02;14.40;99.90
25058;DHT22;13057;50.978;11.034;2023-05-10T04:57:28;14.30;99.90
25058;DHT22;13057;50.978;11.034;2023-05-10T04:59:53;14.30;99.90
25058;DHT22;13057;50.978;11.034;2023-05-10T05:02:19;14.30;99.90
25058;DHT22;13057;50.978;11.034;2023-05-10T05:04:45;14.30;99.90
25058;DHT22;13057;50.978;11.034;2023-05-10T05:07:11;14.20;99.90
25058;DHT22;13057;50.978;11.034;2023-05-10T05:09:37;14.20;99.90
25058;DHT22;13057;50.978;11.034;2023-05-10T05:12:03;14.30;99.90
25058;DHT22;13057;50.978;11.034;2023-05-10T05:14:29;14.30;99.90
25058;DHT22;13057;50.978;11.034;2023-05-10T05:16:55;14.20;99.90
25058;DHT22;13057;50.978;11.034;2023-05-10T05:19:21;14.20;99.90
25058;DHT22;13057;50.978;11.034;2023-05-10T05:21:48;14.30;99.90
25058;DHT22;13057;50.978;11.034;2023-05-10T05:24:13;14.30;99.90
25058;DHT22;13057;50.978;11.034;2023-05-10T05:26:41;14.30;99.90
25058;DHT22;13057;50.978;11.034;2023-05-10T05:29:07;14.30;99.90
25058;DHT22;13057;50.978;11.034;2023-05-10T05:31:32;14.30;99.90
25058;DHT22;13057;50.978;11.034;2023-05-10T05:33:58;14.30;99.90
25058;DHT22;13057;50.978;11.034;2023-05-10T05:36:24;14.30;99.90
25058;DHT22;13057;50.978;11.034;2023-05-10T05:38:50;14.20;99.90
25058;DHT22;13057;50.978;11.034;2023-05-10T05:41:16;14.20;99.90
25058;DHT22;13057;50.978;11.034;2023-05-10T05:43:45;14.30;99.90
25058;DHT22;13057;50.978;11.034;2023-05-10T05:46:13;14.30;99.90
25058;DHT22;13057;50.978;11.034;2023-05-10T05:48:39;14.40;99.90
25058;DHT22;13057;50.978;11.034;2023-05-10T05:51:05;14.40;99.90
25058;DHT22;13057;50.978;11.034;2023-05-10T05:53:31;14.50;99.90
25058;DHT22;13057;50.978;11.034;2023-05-10T05:55:58;14.50;99.90
25058;DHT22;13057;50.978;11.034;2023-05-10T05:58:25;14.60;99.90
25058;DHT22;13057;50.978;11.034;2023-05-10T06:00:51;14.70;99.90
25058;DHT22;13057;50.978;11.034;2023-05-10T06:03:18;14.70;99.90
25058;DHT22;13057;50.978;11.034;2023-05-10T06:05:44;14.70;99.90
25058;DHT22;13057;50.978;11.034;2023-05-10T06:08:10;14.70;99.90
25058;DHT22;13057;50.978;11.034;2023-05-10T06:10:36;14.80;99.90
25058;DHT22;13057;50.978;11.034;2023-05-10T06:13:02;14.80;99.90
25058;DHT22;13057;50.978;11.034;2023-05-10T06:15:28;14.80;99.90
25058;DHT22;13057;50.978;11.034;2023-05-10T06:17:54;14.80;99.90
25058;DHT22;13057;50.978;11.034;2023-05-10T06:20:20;14.90;99.90
25058;DHT22;13057;50.978;11.034;2023-05-10T06:22:46;14.90;99.90
25058;DHT22;13057;50.978;11.034;2023-05-10T06:25:15;14.90;99.90
25058;DHT22;13057;50.978;11.034;2023-05-10T06:27:43;15.00;99.90
25058;DHT22;13057;50.978;11.034;2023-05-10T06:30:10;15.00;99.90
25058;DHT22;13057;50.978;11.034;2023-05-10T06:32:36;15.00;99.90
25058;DHT22;13057;50.978;11.034;2023-05-10T06:35:02;15.00;99.90
25058;DHT22;13057;50.978;11.034;2023-05-10T06:37:28;15.10;99.90
25058;DHT22;13057;50.978;11.034;2023-05-10T06:39:54;15.10;99.90
25058;DHT22;13057;50.978;11.034;2023-05-10T06:42:20;15.10;99.90
25058;DHT22;13057;50.978;11.034;2023-05-10T06:44:46;15.10;99.90
25058;DHT22;13057;50.978;11.034;2023-05-10T06:47:12;15.20;99.90
25058;DHT22;13057;50.978;11.034;2023-05-10T06:49:38;15.20;99.90
25058;DHT22;13057;50.978;11.034;2023-05-10T06:52:03;15.30;99.90
25058;DHT22;13057;50.978;11.034;2023-05-10T06:54:29;15.30;99.90
25058;DHT22;13057;50.978;11.034;2023-05-10T06:56:55;15.30;99.90
25058;DHT22;13057;50.978;11.034;2023-05-10T06:59:21;15.40;99.90
25058;DHT22;13057;50.978;11.034;2023-05-10T07:01:47;15.50;99.90
25058;DHT22;13057;50.978;11.034;2023-05-10T07:04:14;15.60;99.90
25058;DHT22;13057;50.978;11.034;2023-05-10T07:06:39;15.60;99.90
25058;DHT22;13057;50.978;11.034;2023-05-10T07:09:05;15.60;99.90
25058;DHT22;13057;50.978;11.034;2023-05-10T07:11:33;15.70;99.90
25058;DHT22;13057;50.978;11.034;2023-05-10T07:13:59;15.70;99.90
25058;DHT22;13057;50.978;11.034;2023-05-10T07:16:25;15.80;99.90
25058;DHT22;13057;50.978;11.034;2023-05-10T07:18:51;15.80;99.90
25058;DHT22;13057;50.978;11.034;2023-05-10T07:21:18;15.90;99.90
25058;DHT22;13057;50.978;11.034;2023-05-10T07:23:44;15.90;99.90
25058;DHT22;13057;50.978;11.034;2023-05-10T07:26:10;15.90;99.90
25058;DHT22;13057;50.978;11.034;2023-05-10T07:28:36;15.90;99.90
25058;DHT22;13057;50.978;11.034;2023-05-10T07:31:03;16.00;99.90
25058;DHT22;13057;50.978;11.034;2023-05-10T07:33:29;16.00;99.90
25058;DHT22;13057;50.978;11.034;2023-05-10T07:35:54;16.20;99.90
25058;DHT22;13057;50.978;11.034;2023-05-10T07:38:21;16.20;99.90
25058;DHT22;13057;50.978;11.034;2023-05-10T07:40:47;16.30;99.90
25058;DHT22;13057;50.978;11.034;2023-05-10T07:43:15;16.30;99.90
25058;DHT22;13057;50.978;11.034;2023-05-10T07:45:41;16.40;99.90
25058;DHT22;13057;50.978;11.034;2023-05-10T07:48:07;16.50;99.90
25058;DHT22;13057;50.978;11.034;2023-05-10T07:50:33;16.50;99.90
25058;DHT22;13057;50.978;11.034;2023-05-10T07:52:59;16.50;99.90
25058;DHT22;13057;50.978;11.034;2023-05-10T07:55:25;16.60;99.90
25058;DHT22;13057;50.978;11.034;2023-05-10T07:57:52;16.60;99.90
25058;DHT22;13057;50.978;11.034;2023-05-10T08:00:19;16.70;99.90
25058;DHT22;13057;50.978;11.034;2023-05-10T08:02:45;16.80;99.90
25058;DHT22;13057;50.978;11.034;2023-05-10T08:05:11;16.80;99.90
25058;DHT22;13057;50.978;11.034;2023-05-10T08:07:38;16.80;99.90
25058;DHT22;13057;50.978;11.034;2023-05-10T08:10:04;16.80;99.90
25058;DHT22;13057;50.978;11.034;2023-05-10T08:12:30;16.80;99.90
25058;DHT22;13057;50.978;11.034;2023-05-10T08:14:56;16.70;99.90
25058;DHT22;13057;50.978;11.034;2023-05-10T08:17:22;16.60;99.90
25058;DHT22;13057;50.978;11.034;2023-05-10T08:19:48;16.60;99.90
25058;DHT22;13057;50.978;11.034;2023-05-10T08:22:14;16.60;99.90
25058;DHT22;13057;50.978;11.034;2023-05-10T08:24:40;16.60;99.90
25058;DHT22;13057;50.978;11.034;2023-05-10T08:27:08;16.60;99.90
25058;DHT22;13057;50.978;11.034;2023-05-10T08:29:34;16.50;99.90
25058;DHT22;13057;50.978;11.034;2023-05-10T08:32:00;16.50;99.90
25058;DHT22;13057;50.978;11.034;2023-05-10T08:34:27;16.60;99.90
25058;DHT22;13057;50.978;11.034;2023-05-10T08:36:54;16.60;99.90
25058;DHT22;13057;50.978;11.034;2023-05-10T08:39:20;16.60;99.90
25058;DHT22;13057;50.978;11.034;2023-05-10T08:41:47;16.70;99.90
25058;DHT22;13057;50.978;11.034;2023-05-10T08:44:15;16.70;99.90
25058;DHT22;13057;50.978;11.034;2023-05-10T08:46:46;16.70;99.90
25058;DHT22;13057;50.978;11.034;2023-05-10T08:49:14;16.80;99.90
25058;DHT22;13057;50.978;11.034;2023-05-10T08:51:46;16.70;99.90
25058;DHT22;13057;50.978;11.034;2023-05-10T08:54:13;16.80;99.90
25058;DHT22;13057;50.978;11.034;2023-05-10T08:56:39;16.80;99.90
25058;DHT22;13057;50.978;11.034;2023-05-10T08:59:05;16.80;99.90
25058;DHT22;13057;50.978;11.034;2023-05-10T09:01:31;16.90;99.90
25058;DHT22;13057;50.978;11.034;2023-05-10T09:03:58;16.90;99.90
25058;DHT22;13057;50.978;11.034;2023-05-10T09:06:24;16.90;99.90
25058;DHT22;13057;50.978;11.034;2023-05-10T09:08:50;17.00;99.90
25058;DHT22;13057;50.978;11.034;2023-05-10T09:11:17;17.00;99.90
25058;DHT22;13057;50.978;11.034;2023-05-10T09:13:44;17.10;99.90
25058;DHT22;13057;50.978;11.034;2023-05-10T09:16:10;17.00;99.90
25058;DHT22;13057;50.978;11.034;2023-05-10T09:18:36;17.10;99.90
25058;DHT22;13057;50.978;11.034;2023-05-10T09:21:02;17.10;99.90
25058;DHT22;13057;50.978;11.034;2023-05-10T09:23:28;17.20;99.90
25058;DHT22;13057;50.978;11.034;2023-05-10T09:26:03;17.20;99.90
25058;DHT22;13057;50.978;11.034;2023-05-10T09:28:32;17.20;99.90
25058;DHT22;13057;50.978;11.034;2023-05-10T09:30:58;17.20;99.90
25058;DHT22;13057;50.978;11.034;2023-05-10T09:33:25;17.30;99.90
25058;DHT22;13057;50.978;11.034;2023-05-10T09:35:52;17.30;99.90
25058;DHT22;13057;50.978;11.034;2023-05-10T09:38:17;17.30;99.90
25058;DHT22;13057;50.978;11.034;2023-05-10T09:40:52;17.30;99.90
25058;DHT22;13057;50.978;11.034;2023-05-10T09:43:20;17.20;99.90
25058;DHT22;13057;50.978;11.034;2023-05-10T09:45:48;17.10;99.90
25058;DHT22;13057;50.978;11.034;2023-05-10T09:48:15;17.10;99.90
25058;DHT22;13057;50.978;11.034;2023-05-10T09:50:41;17.20;99.90
25058;DHT22;13057;50.978;11.034;2023-05-10T09:53:07;17.10;99.90
25058;DHT22;13057;50.978;11.034;2023-05-10T09:55:39;17.10;99.90
25058;DHT22;13057;50.978;11.034;2023-05-10T09:58:06;16.90;99.90
25058;DHT22;13057;50.978;11.034;2023-05-10T10:00:38;16.90;99.90
25058;DHT22;13057;50.978;11.034;2023-05-10T10:03:04;16.70;99.90
25058;DHT22;13057;50.978;11.034;2023-05-10T10:05:33;16.60;99.90
25058;DHT22;13057;50.978;11.034;2023-05-10T10:08:02;16.70;99.90
25058;DHT22;13057;50.978;11.034;2023-05-10T10:10:29;16.60;99.90
25058;DHT22;13057;50.978;11.034;2023-05-10T10:12:56;16.60;99.90
25058;DHT22;13057;50.978;11.034;2023-05-10T10:15:25;16.60;99.90
25058;DHT22;13057;50.978;11.034;2023-05-10T10:17:52;16.70;99.90
25058;DHT22;13057;50.978;11.034;2023-05-10T10:20:20;16.70;99.90
25058;DHT22;13057;50.978;11.034;2023-05-10T10:22:47;16.80;99.90
25058;DHT22;13057;50.978;11.034;2023-05-10T10:25:14;16.80;99.90
25058;DHT22;13057;50.978;11.034;2023-05-10T10:28:02;16.80;99.90
25058;DHT22;13057;50.978;11.034;2023-05-10T10:30:42;16.80;99.90
25058;DHT22;13057;50.978;11.034;2023-05-10T10:33:33;17.00;99.90
25058;DHT22;13057;50.978;11.034;2023-05-10T10:36:05;17.10;99.90
25058;DHT22;13057;50.978;11.034;2023-05-10T10:38:55;17.20;99.90
25058;DHT22;13057;50.978;11.034;2023-05-10T10:42:05;17.30;99.90
25058;DHT22;13057;50.978;11.034;2023-05-10T10:44:35;17.40;99.90
25058;DHT22;13057;50.978;11.034;2023-05-10T10:47:10;17.40;99.90
25058;DHT22;13057;50.978;11.034;2023-05-10T10:49:49;17.50;99.90
25058;DHT22;13057;50.978;11.034;2023-05-10T10:52:26;17.60;99.90
25058;DHT22;13057;50.978;11.034;2023-05-10T10:55:03;17.60;99.90
25058;DHT22;13057;50.978;11.034;2023-05-10T10:57:44;17.60;99.90
25058;DHT22;13057;50.978;11.034;2023-05-10T11:00:23;17.60;99.90
25058;DHT22;13057;50.978;11.034;2023-05-10T11:03:06;17.40;99.90
25058;DHT22;13057;50.978;11.034;2023-05-10T11:05:38;17.40;99.90
25058;DHT22;13057;50.978;11.034;2023-05-10T11:08:12;17.40;99.90
25058;DHT22;13057;50.978;11.034;2023-05-10T11:10:39;17.40;99.90
25058;DHT22;13057;50.978;11.034;2023-05-10T11:13:08;17.30;99.90
25058;DHT22;13057;50.978;11.034;2023-05-10T11:15:36;17.20;99.90
25058;DHT22;13057;50.978;11.034;2023-05-10T11:18:18;17.00;99.90
25058;DHT22;13057;50.978;11.034;2023-05-10T11:20:50;17.00;99.90
25058;DHT22;13057;50.978;11.034;2023-05-10T11:23:16;16.90;99.90
25058;DHT22;13057;50.978;11.034;2023-05-10T11:25:44;16.80;99.90
25058;DHT22;13057;50.978;11.034;2023-05-10T11:28:11;16.80;99.90
25058;DHT22;13057;50.978;11.034;2023-05-10T11:30:39;16.80;99.90
25058;DHT22;13057;50.978;11.034;2023-05-10T11:33:07;16.70;99.90
25058;DHT22;13057;50.978;11.034;2023-05-10T11:35:38;16.70;99.90
25058;DHT22;13057;50.978;11.034;2023-05-10T11:38:07;16.60;99.90
25058;DHT22;13057;50.978;11.034;2023-05-10T11:40:33;16.60;99.90
25058;DHT22;13057;50.978;11.034;2023-05-10T11:42:59;16.60;99.90
25058;DHT22;13057;50.978;11.034;2023-05-10T11:45:25;16.50;99.90
25058;DHT22;13057;50.978;11.034;2023-05-10T11:47:51;16.30;99.90
25058;DHT22;13057;50.978;11.034;2023-05-10T11:50:17;16.20;99.90
25058;DHT22;13057;50.978;11.034;2023-05-10T11:52:43;16.10;99.90
25058;DHT22;13057;50.978;11.034;2023-05-10T11:55:12;16.00;99.90
25058;DHT22;13057;50.978;11.034;2023-05-10T11:57:38;16.00;99.90
25058;DHT22;13057;50.978;11.034;2023-05-10T12:00:07;16.10;99.90
25058;DHT22;13057;50.978;11.034;2023-05-10T12:02:33;16.10;99.90
25058;DHT22;13057;50.978;11.034;2023-05-10T12:04:59;16.10;99.90
25058;DHT22;13057;50.978;11.034;2023-05-10T12:07:26;16.20;99.90
25058;DHT22;13057;50.978;11.034;2023-05-10T12:10:06;16.30;99.90
25058;DHT22;13057;50.978;11.034;2023-05-10T12:12:46;16.40;99.90
25058;DHT22;13057;50.978;11.034;2023-05-10T12:15:19;16.50;99.90
25058;DHT22;13057;50.978;11.034;2023-05-10T12:17:46;16.60;99.90
25058;DHT22;13057;50.978;11.034;2023-05-10T12:20:20;16.70;99.90
25058;DHT22;13057;50.978;11.034;2023-05-10T12:22:52;16.70;99.90
25058;DHT22;13057;50.978;11.034;2023-05-10T12:25:19;16.80;99.90
25058;DHT22;13057;50.978;11.034;2023-05-10T12:27:54;16.80;99.90
25058;DHT22;13057;50.978;11.034;2023-05-10T12:30:25;16.80;99.90
25058;DHT22;13057;50.978;11.034;2023-05-10T12:32:52;16.80;99.90
25058;DHT22;13057;50.978;11.034;2023-05-10T12:35:19;16.90;99.90
25058;DHT22;13057;50.978;11.034;2023-05-10T12:37:48;16.90;99.90
25058;DHT22;13057;50.978;11.034;2023-05-10T12:40:14;17.00;99.90
25058;DHT22;13057;50.978;11.034;2023-05-10T12:42:40;17.10;99.90
25058;DHT22;13057;50.978;11.034;2023-05-10T12:45:07;17.20;99.90
25058;DHT22;13057;50.978;11.034;2023-05-10T12:47:34;17.20;99.90
25058;DHT22;13057;50.978;11.034;2023-05-10T12:50:00;17.30;99.90
25058;DHT22;13057;50.978;11.034;2023-05-10T12:52:27;17.30;99.90
25058;DHT22;13057;50.978;11.034;2023-05-10T12:54:54;17.30;99.90
25058;DHT22;13057;50.978;11.034;2023-05-10T12:57:20;17.40;99.90
25058;DHT22;13057;50.978;11.034;2023-05-10T12:59:46;17.40;99.90
25058;DHT22;13057;50.978;11.034;2023-05-10T13:02:12;17.40;99.90
25058;DHT22;13057;50.978;11.034;2023-05-10T13:04:40;17.40;99.90
25058;DHT22;13057;50.978;11.034;2023-05-10T13:07:07;17.50;99.90
25058;DHT22;13057;50.978;11.034;2023-05-10T13:09:32;17.50;99.90
25058;DHT22;13057;50.978;11.034;2023-05-10T13:11:58;17.60;99.90
25058;DHT22;13057;50.978;11.034;2023-05-10T13:14:25;17.60;99.90
25058;DHT22;13057;50.978;11.034;2023-05-10T13:16:51;17.70;99.90
25058;DHT22;13057;50.978;11.034;2023-05-10T13:19:17;17.70;99.90
25058;DHT22;13057;50.978;11.034;2023-05-10T13:21:44;17.80;99.90
25058;DHT22;13057;50.978;11.034;2023-05-10T13:24:10;17.80;99.90
25058;DHT22;13057;50.978;11.034;2023-05-10T13:26:39;17.80;99.90
25058;DHT22;13057;50.978;11.034;2023-05-10T13:29:06;17.90;99.90
25058;DHT22;13057;50.978;11.034;2023-05-10T13:31:31;18.00;99.90
25058;DHT22;13057;50.978;11.034;2023-05-10T13:33:57;18.00;99.90
25058;DHT22;13057;50.978;11.034;2023-05-10T13:36:23;18.10;99.90
25058;DHT22;13057;50.978;11.034;2023-05-10T13:38:49;18.10;99.90
25058;DHT22;13057;50.978;11.034;2023-05-10T13:41:15;18.10;99.90
25058;DHT22;13057;50.978;11.034;2023-05-10T13:43:53;18.20;99.90
25058;DHT22;13057;50.978;11.034;2023-05-10T13:46:29;18.10;99.90
25058;DHT22;13057;50.978;11.034;2023-05-10T13:48:56;18.00;99.90
25058;DHT22;13057;50.978;11.034;2023-05-10T13:51:22;18.00;99.90
25058;DHT22;13057;50.978;11.034;2023-05-10T13:53:48;18.00;99.90
25058;DHT22;13057;50.978;11.034;2023-05-10T13:56:14;18.00;99.90
25058;DHT22;13057;50.978;11.034;2023-05-10T13:58:41;18.00;99.90
25058;DHT22;13057;50.978;11.034;2023-05-10T14:01:07;18.10;99.60
25058;DHT22;13057;50.978;11.034;2023-05-10T14:03:33;18.10;99.90
25058;DHT22;13057;50.978;11.034;2023-05-10T14:05:59;18.10;99.90
25058;DHT22;13057;50.978;11.034;2023-05-10T14:08:25;18.10;99.30
25058;DHT22;13057;50.978;11.034;2023-05-10T14:10:52;18.20;99.10
25058;DHT22;13057;50.978;11.034;2023-05-10T14:13:18;18.10;98.80
25058;DHT22;13057;50.978;11.034;2023-05-10T14:15:44;18.20;99.20
25058;DHT22;13057;50.978;11.034;2023-05-10T14:18:10;18.30;99.80
25058;DHT22;13057;50.978;11.034;2023-05-10T14:20:36;18.30;99.90
25058;DHT22;13057;50.978;11.034;2023-05-10T14:23:02;18.40;99.20
25058;DHT22;13057;50.978;11.034;2023-05-10T14:25:29;18.40;98.40
25058;DHT22;13057;50.978;11.034;2023-05-10T14:27:56;18.40;98.80
25058;DHT22;13057;50.978;11.034;2023-05-10T14:30:22;18.40;99.00
25058;DHT22;13057;50.978;11.034;2023-05-10T14:32:47;18.50;98.80
25058;DHT22;13057;50.978;11.034;2023-05-10T14:35:13;18.50;99.30
25058;DHT22;13057;50.978;11.034;2023-05-10T14:37:39;18.50;98.80
25058;DHT22;13057;50.978;11.034;2023-05-10T14:40:06;18.50;98.30
25058;DHT22;13057;50.978;11.034;2023-05-10T14:42:32;18.50;98.30
25058;DHT22;13057;50.978;11.034;2023-05-10T14:44:58;18.50;99.10
25058;DHT22;13057;50.978;11.034;2023-05-10T14:47:24;18.50;99.00
25058;DHT22;13057;50.978;11.034;2023-05-10T14:49:50;18.50;98.60
25058;DHT22;13057;50.978;11.034;2023-05-10T14:52:16;18.50;98.30
25058;DHT22;13057;50.978;11.034;2023-05-10T14:54:42;18.50;98.70
25058;DHT22;13057;50.978;11.034;2023-05-10T14:57:08;18.60;98.80
25058;DHT22;13057;50.978;11.034;2023-05-10T14:59:34;18.70;99.00
25058;DHT22;13057;50.978;11.034;2023-05-10T15:02:00;18.80;99.10
25058;DHT22;13057;50.978;11.034;2023-05-10T15:04:26;18.90;98.70
25058;DHT22;13057;50.978;11.034;2023-05-10T15:06:53;18.90;99.10
25058;DHT22;13057;50.978;11.034;2023-05-10T15:09:24;19.00;99.10
25058;DHT22;13057;50.978;11.034;2023-05-10T15:11:50;19.00;98.10
25058;DHT22;13057;50.978;11.034;2023-05-10T15:14:16;19.00;98.10
25058;DHT22;13057;50.978;11.034;2023-05-10T15:16:42;19.00;98.00
25058;DHT22;13057;50.978;11.034;2023-05-10T15:19:08;19.00;97.90
25058;DHT22;13057;50.978;11.034;2023-05-10T15:21:34;19.00;97.90
25058;DHT22;13057;50.978;11.034;2023-05-10T15:24:05;19.10;97.90
25058;DHT22;13057;50.978;11.034;2023-05-10T15:26:31;19.10;97.40